UNR Ag. Experiment Farm, Sparks, Nevada Weather observations

Data are for 10 minute period ending at time listed.
 Day   Time   Solar   Ave.   Ave.  Ave.  Vector  Max.   Baro.   Total    
  of    of     Rad.   Air    Rel.  Wind   Wind   Wind  Press.  Precip.   
Year   Day            Temp.  Hum.  Speed  Dir.   Gust                    
2015   (PST)  Kw/m2    F      %     mph   deg.    mph    mb.     in.     
-------------------------------------------------------------------------
  85    4:20   0.00   33.4    88    0.1   105     0.7   874.6    0.00 
  85    4:30   0.00   32.1    88    0.1   209     0.9   874.7    0.00 
  85    4:40   0.00   32.7    90    0.1   191     0.9   874.7    0.00 
  85    4:50   0.00   33.0    90    0.8   174     1.7   874.8    0.00 
  85    5:00   0.00   31.8    90    2.1   196     2.6   874.7    0.00 
  85    5:10   0.00   32.2    90    1.0   230     2.5   874.8    0.00 
  85    5:20   0.00   33.7    90    1.7   230     2.5   874.8    0.00 
  85    5:30   0.00   33.5    85    1.4    52     2.8   874.9    0.00 
  85    5:40   0.00   32.9    87    0.1    53     0.6   874.9    0.00 
  85    5:50   0.00   31.4    86    0.0    53     0.5   875.0    0.00 
  85    6:00   0.00   31.9    89    0.0     0     0.0   875.0    0.00 
  85    6:10   0.01   31.2    89    0.0    25     0.8   875.0    0.00 
  85    6:20   0.01   31.5    90    0.9    62     1.7   875.1    0.00 
  85    6:30   0.03   32.2    89    2.3   139     2.8   875.2    0.00 
  85    6:40   0.07   33.2    88    0.8   141     2.6   875.3    0.00 
  85    6:50   0.10   35.0    85    0.0   131     0.4   875.3    0.00 
  85    7:00   0.11   36.3    82    0.1   100     1.1   875.3    0.00 
  85    7:10   0.15   39.0    81    1.2    82     2.0   875.4    0.00 
  85    7:20   0.18   42.5    72    0.4   118     1.1   875.4    0.00 
  85    7:30   0.20   45.6    60    0.5   103     1.3   875.4    0.00 
  85    7:40   0.25   47.5    54    0.5    97     1.6   875.4    0.00 
  85    7:50   0.28   47.9    52    0.9   350     2.7   875.3    0.00 
  85    8:00   0.27   46.5    56    1.4   346     2.7   875.3    0.00 
  85    8:10   0.35   47.8    54    0.7   346     2.1   875.3    0.00 
  85    8:20   0.35   48.6    52    1.1   323     2.9   875.2    0.00 
  85    8:30   0.41   49.6    50    1.0   344     2.6   875.1    0.00 
  85    8:40   0.43   51.0    47    1.0   344     2.3   875.0    0.00 
  85    8:50   0.46   52.5    45    1.0    38     2.5   874.9    0.00 
  85    9:00   0.49   53.5    45    2.0     8     4.7   874.9    0.00 
  85    9:10   0.49   54.1    45    1.3    15     3.0   874.9    0.00 
  85    9:20   0.54   54.4    43    1.9   306     5.1   874.8    0.00 
  85    9:30   0.57   55.3    42    1.7   292     4.5   874.8    0.00 
  85    9:40   0.57   56.8    40    1.7   303     3.9   874.7    0.00 
  85    9:50   0.61   57.5    39    1.9   310     4.0   874.7    0.00 
  85   10:00   0.63   58.7    37    1.8    13     3.9   874.6    0.00 
  85   10:10   0.64   60.1    35    2.3   304     5.3   874.5    0.00 
  85   10:20   0.67   60.7    34    2.8    36     5.3   874.5    0.00 
  85   10:30   0.69   62.3    31    2.1    66     3.9   874.4    0.00 
  85   10:40   0.71   62.0    32    3.8   296     8.4   874.3    0.00 
  85   10:50   0.72   61.9    32    4.0   305     6.7   874.2    0.00 
  85   11:00   0.74   63.0    31    3.1   283     7.2   874.2    0.00 
  85   11:10   0.75   63.5    30    2.5   310     6.1   873.9    0.00 
  85   11:20   0.76   65.0    30    2.1   290     5.2   873.9    0.00 
  85   11:30   0.77   66.7    26    1.9   128     7.2   873.8    0.00 
  85   11:40   0.78   67.4    27    3.2   300     7.7   873.8    0.00 
  85   11:50   0.79   66.9    28    2.8   354     6.6   873.7    0.00 
  85   12:00   0.79   67.3    27    3.5   344     7.8   873.7    0.00 
  85   12:10   0.79   66.8    27    3.4   295     7.0   873.5    0.00 
  85   12:20   0.79   67.0    27    4.4   296     8.5   873.4    0.00 
  85   12:30   0.79   68.8    26    6.1    38    14.6   873.2    0.00 
  85   12:40   0.79   68.5    25    4.9    22    13.9   873.0    0.00 
  85   12:50   0.79   69.5    24    5.0   107     9.1   872.9    0.00 
  85   13:00   0.78   69.8    23    3.8   122     7.7   872.8    0.00 
  85   13:10   0.78   69.9    25    5.7    38    11.5   872.6    0.00 
  85   13:20   0.77   70.0    24    4.7   353     8.8   872.4    0.00 
  85   13:30   0.76   69.8    24    4.9    18    10.4   872.3    0.00 
  85   13:40   0.74   69.9    24    6.4    13     9.2   872.1    0.00 
  85   13:50   0.73   69.9    23    4.9     7     8.0   872.1    0.00 
  85   14:00   0.72   70.8    25    5.9    38    14.8   871.9    0.00 
  85   14:10   0.70   71.2    23    5.7    52    12.2   871.7    0.00 
  85   14:20   0.68   71.4    22    4.8    26     9.3   871.6    0.00 
  85   14:30   0.66   71.1    24    5.6     9     9.8   871.4    0.00 
  85   14:40   0.64   71.8    23    7.9    45    12.3   871.3    0.00 
  85   14:50   0.62   72.2    22    6.3    57    11.7   871.3    0.00 
  85   15:00   0.60   72.2    23    6.8    42    11.0   871.1    0.00 
  85   15:10   0.57   72.6    22    5.8    42    11.9   871.0    0.00 
  85   15:20   0.55   72.7    22    6.4    62    10.4   871.0    0.00 
  85   15:30   0.52   72.6    21    5.9    72    13.0   870.9    0.00 
  85   15:40   0.49   72.5    22    7.5    73    11.2   870.8    0.00 
  85   15:50   0.47   72.2    23    8.6    72    13.6   870.8    0.00 
  85   16:00   0.43   72.3    22    8.8    74    12.3   870.7    0.00 
  85   16:10   0.41   72.3    23    7.4    76    11.3   870.6    0.00 
  85   16:20   0.37   72.2    23    8.3    76    12.2   870.6    0.00 
  85   16:30   0.34   71.8    23    8.1    78    12.1   870.6    0.00 
  85   16:40   0.31   70.9    24    9.7    72    13.1   870.5    0.00 
  85   16:50   0.28   70.8    24    8.9    79    14.5   870.5    0.00 
  85   17:00   0.24   70.3    26    9.9    72    15.4   870.4    0.00 
  85   17:10   0.21   69.4    26    9.9    71    13.9   870.3    0.00 
  85   17:20   0.18   68.9    26    9.2    71    13.4   870.2    0.00 
  85   17:30   0.15   68.8    25   10.8    76    16.7   870.2    0.00 
  85   17:40   0.12   67.7    27   10.2    72    15.6   870.1    0.00 
  85   17:50   0.09   67.1    27   11.2    74    16.1   870.1    0.00 
  85   18:00   0.06   66.9    26   10.8    77    16.6   870.1    0.00 
  85   18:10   0.02   66.2    27   10.0    74    13.6   870.1    0.00 
  85   18:20   0.01   65.3    27    9.4    78    13.0   870.2    0.00 
  85   18:30   0.00   65.5    27   10.2    78    15.3   870.1    0.00 
  85   18:40   0.00   65.1    27   10.4    81    15.7   870.1    0.00 
  85   18:50   0.00   65.4    26    9.1    84    14.5   870.2    0.00 
  85   19:00   0.00   64.3    28    6.2    78    12.5   870.3    0.00 
  85   19:10   0.00   64.1    26    6.1    92    12.1   870.4    0.00 
  85   19:20   0.00   64.3    26    3.7    98     7.2   870.6    0.00 
  85   19:30   0.00   62.6    28    3.1   252     5.6   870.6    0.00 
  85   19:40   0.00   61.4    29    4.3   262     5.9   870.7    0.00 
  85   19:50   0.00   62.2    28    1.1   198     3.9   870.8    0.00 
  85   20:00   0.00   61.6    28    1.5   231     4.1   870.9    0.00 
  85   20:10   0.00   60.3    28    2.8   183     5.7   870.9    0.00 
  85   20:20   0.00   60.0    30    3.5   164     5.6   871.0    0.00 
  85   20:30   0.00   57.7    32    3.3   188     5.1   871.1    0.00 
  85   20:40   0.00   56.1    34    1.0   238     2.3   871.3    0.00 
  85   20:50   0.00   55.0    37    1.1   103     2.3   871.3    0.00 
  85   21:00   0.00   55.1    38    1.8   121     2.7   871.5    0.00 
  85   21:10   0.00   55.4    39    1.6   116     3.7   871.5    0.00 
  85   21:20   0.00   52.4    45    3.0   142     5.0   871.7    0.00 
  85   21:30   0.00   51.1    46    3.4   171     5.0   871.8    0.00 
  85   21:40   0.00   48.3    50    2.3   206     3.4   871.9    0.00 
  85   21:50   0.00   51.5    46    3.2   235     4.1   872.0    0.00 
  85   22:00   0.00   53.2    43    2.0   236     3.1   872.1    0.00 
  85   22:10   0.00   51.1    47    1.8   168     3.5   872.1    0.00 
  85   22:20   0.00   48.0    54    4.4   147     5.3   872.1    0.00 
  85   22:30   0.00   50.0    48    3.6   163     5.4   872.0    0.00 
  85   22:40   0.00   47.1    52    1.1   231     2.6   872.0    0.00 
  85   22:50   0.00   46.7    59    2.7   247     3.8   872.2    0.00 
  85   23:00   0.00   50.5    50    2.8   234     3.5   872.2    0.00 
  85   23:10   0.00   48.3    51    2.1   136     3.7   872.2    0.00 
  85   23:20   0.00   46.0    60    1.7   135     2.6   872.2    0.00 
  85   23:30   0.00   47.4    56    1.2   152     3.1   872.1    0.00 
  85   23:40   0.00   46.6    57    1.7   151     2.7   872.1    0.00 
  85   23:50   0.00   45.8    58    0.8   197     3.0   872.1    0.00 
  86    0:00   0.00   45.4    59    0.4   225     1.9   872.1    0.00 
  86    0:10   0.00   44.3    63    1.0   338     2.8   872.1    0.00 
  86    0:20   0.00   44.6    68    1.8   307     2.6   872.1    0.00 
  86    0:30   0.00   45.6    65    1.6   276     2.2   872.1    0.00 
  86    0:40   0.00   44.6    68    1.6    54     3.2   872.1    0.00 
  86    0:50   0.00   42.6    74    2.6    81     3.7   872.1    0.00 
  86    1:00   0.00   43.9    69    1.9    96     2.7   872.2    0.00 
  86    1:10   0.00   41.6    68    0.2   102     1.1   872.2    0.00 
  86    1:20   0.00   40.1    72    0.3   103     0.8   872.2    0.00 
  86    1:30   0.00   40.7    75    0.3   313     2.6   872.2    0.00 
  86    1:40   0.00   41.0    76    0.3   343     2.3   872.2    0.00 
  86    1:50   0.00   41.2    75    0.0   326     0.7   872.1    0.00 
  86    2:00   0.00   41.9    74    0.3   237     1.2   872.0    0.00 
  86    2:10   0.00   42.2    72    0.1   237     0.9   872.0    0.00 
  86    2:20   0.00   41.4    74    0.3   237     0.9   871.9    0.00 
  86    2:30   0.00   40.2    78    0.4   237     0.9   871.9    0.00 
  86    2:40   0.00   39.9    79    0.0   237     0.4   871.8    0.00 
  86    2:50   0.00   38.7    80    0.8   237     1.5   871.8    0.00 
  86    3:00   0.00   38.4    81    0.4   237     1.2   871.7    0.00 
  86    3:10   0.00   37.5    82    0.2   237     0.7   871.7    0.00 
  86    3:20   0.00   38.0    84    0.2   237     1.1   871.7    0.00 
  86    3:30   0.00   38.2    83    0.2   237     0.9   871.7    0.00 
  86    3:40   0.00   36.7    79    0.4   237     1.3   871.7    0.00 
  86    3:50   0.00   36.4    84    1.1   237     2.0   871.7    0.00 
  86    4:00   0.00   36.2    84    0.7   293     2.0   871.7    0.00 
  86    4:10   0.00   36.9    88    0.0   352     0.4   871.7    0.00 

Return to Sparks, Nevada, UNR Ag Experiment Farm graphs page.


Western Regional Climate Center,wrcc@dri.edu